Flight Track Log - Related Links

Times and Time Zones

All times are in EDT time to prevent confusion due to time zone crossing. See the JZA8279 flight status page for this flight to view local times or setup timezone preferences in your user account.

Time Position Orientation Groundspeed Altitude Reporting Facility
EDT Latitude Longitude Course Direction KTS MPH feet Rate Location/Type
01:51PM 54.2500 -130.4833 136° Southeast 110 127 1,500  Level Vancouver Center
01:52PM 54.2500 -130.5500 270° West 150 173 3,300 1,800 Climbing Vancouver Center
01:53PM 54.2333 -130.5333 150° Southeast 110 127 5,100 1,750 Climbing Vancouver Center
01:54PM 54.2167 -130.4833 120° Southeast 130 150 6,800 1,750 Climbing Vancouver Center
01:55PM 54.2000 -130.4167 113° Southeast 140 161 8,600 1,700 Climbing Vancouver Center
01:56PM 53.9938 -129.9604 136° Southeast  Level Estimated
01:56PM 54.1833 -130.3667 120° Southeast 150 173 10,200  Level Vancouver Center
01:57PM 53.9428 -129.8769 136° Southeast  Level Estimated
01:57PM 54.1667 -130.3000 113° Southeast 150 173 11,300  Level Vancouver Center
01:58PM 54.1333 -130.2333 130° Southeast 170 196 12,000 800 Climbing Vancouver Center
01:59PM 54.1000 -130.1833 139° Southeast 190 219 12,900 950 Climbing Vancouver Center
02:00PM 54.0500 -130.1167 142° Southeast 200 230 13,900 950 Climbing Vancouver Center
02:01PM 54.0167 -130.0500 130° Southeast 200 230 14,800 900 Climbing Vancouver Center
02:02PM 53.9833 -129.9667 124° Southeast 200 230 15,700 900 Climbing Vancouver Center
02:03PM 53.9333 -129.9000 142° Southeast 210 242 16,600 900 Climbing Vancouver Center
02:04PM 53.9000 -129.8333 130° Southeast 210 242 17,500 950 Climbing Vancouver Center
02:05PM 53.8500 -129.7667 142° Southeast 210 242 18,500 900 Climbing Vancouver Center
02:06PM 53.8000 -129.6833 135° Southeast 210 242 19,300 800 Climbing Vancouver Center
02:07PM 53.7667 -129.6167 130° Southeast 210 242 20,100 750 Climbing Vancouver Center
02:08PM 53.7333 -129.5500 130° Southeast 210 242 20,800 450 Climbing Vancouver Center
02:09PM 53.6833 -129.5000 149° Southeast 220 253 21,000 100 Climbing Vancouver Center
02:10PM 53.6333 -129.4000 130° Southeast 230 265 21,000  Level Vancouver Center
02:11PM 53.5833 -129.3167 135° Southeast 250 288 21,000  Level Vancouver Center
02:12PM 53.5500 -129.2167 119° Southeast 260 299 21,000  Level Vancouver Center
02:13PM 53.4833 -129.1333 143° Southeast 260 299 21,000  Level Vancouver Center
02:14PM 53.4333 -129.0667 142° Southeast 260 299 21,000  Level Vancouver Center
02:15PM 53.3833 -128.9833 135° Southeast 260 299 21,000  Level Vancouver Center
02:16PM 53.3167 -128.8833 138° Southeast 270 311 21,000  Level Vancouver Center
02:17PM 53.2833 -128.8000 124° Southeast 270 311 21,000  Level Vancouver Center
02:18PM 53.2167 -128.7000 138° Southeast 270 311 21,000  Level Vancouver Center
02:19PM 53.1667 -128.6167 135° Southeast 270 311 21,000  Level Vancouver Center
02:20PM 53.1000 -128.5333 143° Southeast 270 311 21,000  Level Vancouver Center
02:21PM 53.0500 -128.4333 130° Southeast 270 311 21,000  Level Vancouver Center
02:22PM 53.0000 -128.3500 135° Southeast 270 311 21,000  Level Vancouver Center
02:23PM 52.9500 -128.2667 135° Southeast 280 322 21,000  Level Vancouver Center
02:24PM 52.8833 -128.1667 138° Southeast 280 322 21,000  Level Vancouver Center
02:25PM 52.8333 -128.0833 135° Southeast 270 311 21,000  Level Vancouver Center
02:26PM 52.7667 -128.0000 143° Southeast 270 311 21,000  Level Vancouver Center
02:27PM 52.7167 -127.9333 141° Southeast 270 311 21,000  Level Vancouver Center
02:28PM 52.6667 -127.8167 125° Southeast 270 311 21,000  Level Vancouver Center
02:29PM 52.6167 -127.7500 141° Southeast 270 311 21,000  Level Vancouver Center
02:30PM 52.5667 -127.6667 135° Southeast 260 299 21,000  Level Vancouver Center
02:31PM 52.5000 -127.5833 143° Southeast 270 311 21,000  Level Vancouver Center
02:32PM 52.4500 -127.5000 135° Southeast 270 311 21,000  Level Vancouver Center
02:33PM 52.3833 -127.4167 143° Southeast 270 311 21,000  Level Vancouver Center
02:34PM 52.3500 -127.3167 119° Southeast 270 311 21,000  Level Vancouver Center
02:35PM 52.3000 -127.2333 134° Southeast 270 311 21,000  Level Vancouver Center
02:36PM 52.2333 -127.1833 155° Southeast 270 311 21,000  Level Vancouver Center
02:37PM 52.1833 -127.1000 134° Southeast 260 299 21,000  Level Vancouver Center
02:38PM 52.1333 -127.0000 129° Southeast 260 299 21,000  Level Vancouver Center
02:39PM 52.0667 -126.9167 142° Southeast 260 299 21,000  Level Vancouver Center
02:40PM 52.0167 -126.8333 134° Southeast 260 299 21,000  Level Vancouver Center
02:41PM 51.9667 -126.7833 148° Southeast 260 299 21,000  Level Vancouver Center
02:42PM 51.9000 -126.7000 142° Southeast 260 299 21,000  Level Vancouver Center
02:43PM 51.8667 -126.6167 123° Southeast 260 299 21,000  Level Vancouver Center
02:44PM 51.8167 -126.5333 134° Southeast 260 299 21,000  Level Vancouver Center
02:45PM 51.7667 -126.4500 134° Southeast 250 288 21,000  Level Vancouver Center
02:46PM 51.7167 -126.3833 140° Southeast 250 288 21,000  Level Vancouver Center
02:47PM 51.6500 -126.3000 142° Southeast 250 288 21,000  Level Vancouver Center
02:48PM 51.6000 -126.2167 134° Southeast 250 288 21,000  Level Vancouver Center
02:49PM 51.5500 -126.1667 148° Southeast 250 288 21,000  Level Vancouver Center
02:50PM 51.5000 -126.0833 134° Southeast 250 288 21,000  Level Vancouver Center
02:51PM 51.4333 -126.0000 142° Southeast 250 288 21,000  Level Vancouver Center
02:52PM 51.3833 -125.9333 140° Southeast 250 288 21,000  Level Vancouver Center
02:53PM 51.3333 -125.8500 134° Southeast 250 288 21,000  Level Vancouver Center
02:54PM 51.3000 -125.7667 123° Southeast 240 276 21,000  Level Vancouver Center
02:55PM 51.2500 -125.7167 148° Southeast 240 276 21,000  Level Vancouver Center
02:56PM 51.2000 -125.6333 134° Southeast 240 276 21,000  Level Vancouver Center
02:57PM 51.1500 -125.5500 134° Southeast 250 288 21,000  Level Vancouver Center
02:58PM 51.1000 -125.5000 148° Southeast 240 276 21,000  Level Vancouver Center
02:59PM 51.0500 -125.4167 134° Southeast 240 276 21,000  Level Vancouver Center
03:00PM 51.0000 -125.3667 148° Southeast 240 276 21,000  Level Vancouver Center
03:01PM 50.9500 -125.2833 134° Southeast 240 276 21,000  Level Vancouver Center
03:02PM 50.9000 -125.2000 134° Southeast 240 276 21,000  Level Vancouver Center
03:03PM 50.8333 -125.1500 155° Southeast 250 288 21,000  Level Vancouver Center
03:04PM 50.7833 -125.0667 133° Southeast 250 288 21,000  Level Vancouver Center
03:05PM 50.7333 -124.9833 133° Southeast 250 288 21,000  Level Vancouver Center
03:06PM 50.6833 -124.9333 148° Southeast 250 288 21,000  Level Vancouver Center
03:07PM 50.6333 -124.8500 133° Southeast 250 288 21,000  Level Vancouver Center
03:08PM 50.5833 -124.7667 133° Southeast 240 276 21,000  Level Vancouver Center
03:09PM 50.5333 -124.7167 148° Southeast 250 288 21,000  Level Vancouver Center
03:10PM 50.4667 -124.6333 141° Southeast 250 288 21,000  Level Vancouver Center
03:11PM 50.4167 -124.5667 140° Southeast 250 288 21,000  Level Vancouver Center
03:12PM 50.3667 -124.5000 140° Southeast 250 288 21,000  Level Vancouver Center
03:13PM 50.3167 -124.4333 140° Southeast 250 288 21,000  Level Vancouver Center
03:14PM 50.2667 -124.3500 133° Southeast 250 288 21,000  Level Vancouver Center
03:15PM 50.2167 -124.3000 147° Southeast 250 288 21,000  Level Vancouver Center
03:16PM 50.1500 -124.2167 141° Southeast 250 288 21,000  Level Vancouver Center
03:17PM 50.1000 -124.1333 133° Southeast 250 288 21,000  Level Vancouver Center
03:18PM 50.0500 -124.0667 139° Southeast 250 288 21,000 -450 Level Vancouver Center
03:19PM 50.0000 -124.0000 139° Southeast 260 299 20,100 -1,150 Descending Vancouver Center
03:20PM 49.9333 -123.9333 147° Southeast 270 311 18,700 -1,350 Descending Vancouver Center
03:21PM 49.8833 -123.8500 133° Southeast 280 322 17,400 -1,350 Descending Vancouver Center
03:22PM 49.8167 -123.7667 141° Southeast 270 311 16,000 -1,450 Descending Vancouver Center
03:23PM 49.7667 -123.7000 139° Southeast 260 299 14,500 -1,400 Descending Vancouver Center
03:24PM 49.7000 -123.6500 154° Southeast 260 299 13,200 -1,400 Descending Vancouver Center
03:25PM 49.6333 -123.6167 162° South 230 265 11,700 -1,350 Descending Vancouver Center
03:26PM 49.5833 -123.6000 168° South 230 265 10,500 -1,250 Descending Vancouver Center
03:27PM 49.5167 -123.5667 162° South 230 265 9,200 -1,200 Descending Vancouver Center
03:28PM 49.4500 -123.5500 171° South 220 253 8,100 -1,100 Descending Vancouver Center
03:29PM 49.4000 -123.5167 157° South 210 242 7,000 -1,150 Descending Vancouver Center
03:30PM 49.3500 -123.5000 168° South 180 207 5,800 -1,150 Descending Vancouver Center
03:31PM 49.3167 -123.4667 147° Southeast 170 196 4,700 -1,050 Descending Vancouver Center
03:32PM 49.2500 -123.4333 162° South 190 219 3,700 -1,050 Descending Vancouver Center
03:33PM 49.2167 -123.4167 162° South 190 219 2,600 -900 Descending Vancouver Center
03:34PM 49.2000 -123.3333 107° East 170 196 1,900 -750 Descending Vancouver Center
03:35PM 49.2000 -123.2667 90° East 160 184 1,100 -800 Descending Vancouver Center

Login

Don't have an account? Register now (free) for customized features, flight alerts, and more!